フランクフルト の空港の天気 - METARとTAF

フランクフルト国際空港 ( EDDF / FRA ) - ドイツ フランクフルト・アム・マイン
飛行場実況気象(Metar)
観測時間05/28 12:50 CEST (05/28 10:50 UTC)
風向・風速西 5m/s
視程10km以上
天気現象
全天の4割程度の雲 雲底高度 1460m
気温16℃
湿度45%
気圧1020hPa
METAREDDF 281050Z 28010KT 240V320 9999 SCT048 16/04 Q1020 TEMPO 33015G25KT
過去の天気等 Google飛行場航空写真 Wunderground天気予報

過去48時間のMETAR

飛行場予報(TAF)
発表時間: 5/28 10:45 CEST (5/28 08:45 UTC)
予報対象時間: 28日10時 CEST ~ 29日14時 CEST
風向・風速西北西 5m/s
視程10km以上
全天の8割程度の雲 雲底高度 1220m
28日12時 CEST ~ 28日17時 CEST に 確率 30% で一時的に
風向・風速北北西 8m/s 瞬間風速 13m/s
天気現象しゅう雨
全天の8割程度の塔状積雲 雲底高度 910m
28日22時 CEST ~ 28日24時 CEST に徐々に
風向・風速北北西 2m/s
TAF AMD EDDF 280845Z 2808/2912 30010KT 9999 BKN040
PROB30 TEMPO 2810/2815 34015G25KT SHRA BKN030TCU
BECMG 2820/2822 34004KT